Time;durP1;ratioP1;P1;durP2;ratioP2;P2;SDS_P1;SDS_P2;PMS_P1;PMS_P2;Temp;Humidity;BMP_temperature;BMP_pressure;BME280_temperature;BME280_humidity;BME280_pressure;Samples;Min_cycle;Max_cycle;Signal;HPM_P1;HPM_P2
2022/06/16 00:00:14;;;;;;;4.45;2.20;;;26.90;52.70;;;;;;5035569;28;20034;-73
2022/06/16 00:02:46;;;;;;;6.35;2.40;;;26.90;52.00;;;;;;5035787;28;20100;-75
2022/06/16 00:05:14;;;;;;;7.18;2.28;;;26.90;52.40;;;;;;5035683;28;20052;-73
2022/06/16 00:07:41;;;;;;;7.50;2.47;;;26.90;52.50;;;;;;5035479;28;20087;-74
2022/06/16 00:10:09;;;;;;;8.70;3.30;;;26.90;52.60;;;;;;5035367;28;20108;-73
2022/06/16 00:12:35;;;;;;;10.40;2.40;;;26.90;52.30;;;;;;5035284;28;20488;-74
2022/06/16 00:15:02;;;;;;;5.78;2.47;;;27.00;52.70;;;;;;5035177;28;20025;-74
2022/06/16 00:17:27;;;;;;;10.82;2.53;;;27.00;52.80;;;;;;5035158;28;20548;-72
2022/06/16 00:19:53;;;;;;;6.65;2.33;;;27.00;52.80;;;;;;5035255;28;20025;-75
2022/06/16 00:22:19;;;;;;;4.55;2.10;;;27.00;52.80;;;;;;5035588;28;20100;-75
2022/06/16 00:24:44;;;;;;;6.38;2.10;;;27.00;52.90;;;;;;5035788;28;20022;-74
2022/06/16 00:27:10;;;;;;;11.43;2.35;;;27.10;53.00;;;;;;5034997;28;20501;-74
2022/06/16 00:29:36;;;;;;;8.63;2.50;;;27.00;53.10;;;;;;5035088;28;20100;-74
2022/06/16 00:32:02;;;;;;;7.22;2.38;;;26.90;53.90;;;;;;5035310;28;20025;-74
2022/06/16 00:34:28;;;;;;;6.15;2.38;;;26.90;53.20;;;;;;5035089;28;20470;-75
2022/06/16 00:36:54;;;;;;;8.15;2.47;;;26.90;53.40;;;;;;5035350;28;20108;-74
2022/06/16 00:39:20;;;;;;;5.63;2.45;;;26.90;53.50;;;;;;5035037;28;20025;-75
2022/06/16 00:41:45;;;;;;;7.25;2.28;;;27.00;53.70;;;;;;5034698;28;20054;-74
2022/06/16 00:44:37;;;;;;;7.80;2.35;;;26.90;53.80;;;;;;5035139;28;20027;-75
2022/06/16 00:47:03;;;;;;;7.85;2.30;;;27.00;54.10;;;;;;5034998;28;20033;-74
2022/06/16 00:49:29;;;;;;;5.78;2.42;;;26.90;54.20;;;;;;5035224;28;20030;-75
2022/06/16 00:51:59;;;;;;;8.35;2.78;;;26.90;54.60;;;;;;5034766;28;20029;-74
2022/06/16 00:54:36;;;;;;;10.52;2.92;;;26.90;54.70;;;;;;5034865;28;20021;-74
2022/06/16 00:57:07;;;;;;;11.25;2.80;;;26.90;53.60;;;;;;5034691;28;20024;-74
2022/06/16 00:59:33;;;;;;;7.85;2.38;;;26.90;54.40;;;;;;5034534;28;20537;-75
2022/06/16 01:01:59;;;;;;;6.47;2.40;;;26.90;54.80;;;;;;5034635;28;20063;-73
2022/06/16 01:07:14;;;;;;;6.38;2.03;;;26.70;54.80;;;;;;5033602;28;20053;-74
2022/06/16 01:09:42;;;;;;;10.55;2.65;;;26.70;55.60;;;;;;5034159;28;20024;-75
2022/06/16 01:15:26;;;;;;;6.90;2.63;;;26.70;55.00;;;;;;5034384;28;20386;-75
2022/06/16 01:18:28;;;;;;;7.43;2.20;;;26.70;54.70;;;;;;5034588;28;20021;-76
2022/06/16 01:21:15;;;;;;;6.47;2.20;;;26.60;54.50;;;;;;5033022;28;20120;-74
2022/06/16 01:23:52;;;;;;;5.45;2.15;;;26.50;54.80;;;;;;5032749;28;20091;-74
2022/06/16 01:26:36;;;;;;;7.30;2.08;;;26.50;55.00;;;;;;5034204;28;20063;-74
2022/06/16 01:29:23;;;;;;;8.38;2.60;;;26.50;54.80;;;;;;5034128;28;20029;-75
2022/06/16 01:31:49;;;;;;;8.10;2.72;;;26.50;55.20;;;;;;5034178;28;20037;-73
2022/06/16 01:34:29;;;;;;;6.03;2.22;;;26.50;55.10;;;;;;5032672;28;20142;-74
2022/06/16 01:37:09;;;;;;;6.45;2.38;;;26.60;54.80;;;;;;5033931;28;20466;-74
2022/06/16 01:39:44;;;;;;;13.40;2.50;;;26.60;55.20;;;;;;5033578;28;20017;-74
2022/06/16 01:42:49;;;;;;;8.38;2.58;;;26.60;55.10;;;;;;5033936;28;20079;-74
2022/06/16 01:45:46;;;;;;;8.00;2.10;;;26.70;54.90;;;;;;5031863;28;20443;-73
2022/06/16 01:48:14;;;;;;;7.60;1.88;;;26.60;54.80;;;;;;5033489;28;20045;-73
2022/06/16 01:50:47;;;;;;;6.28;2.40;;;26.60;55.50;;;;;;5033500;28;20026;-74
2022/06/16 01:53:19;;;;;;;7.90;2.30;;;26.50;55.50;;;;;;5033667;28;20031;-74
2022/06/16 01:56:06;;;;;;;6.00;2.45;;;26.40;55.40;;;;;;5033532;28;20024;-73
2022/06/16 01:58:35;;;;;;;6.70;2.28;;;26.40;53.60;;;;;;5033894;28;20436;-75
2022/06/16 02:01:07;;;;;;;7.47;2.42;;;26.30;55.30;;;;;;5033377;28;20026;-75
2022/06/16 02:03:38;;;;;;;6.43;1.98;;;26.40;55.20;;;;;;5033403;28;20028;-74
2022/06/16 02:06:12;;;;;;;5.43;2.20;;;26.40;54.80;;;;;;5033311;28;20471;-74
2022/06/16 02:08:48;;;;;;;5.97;2.30;;;26.50;54.60;;;;;;5033368;28;20025;-73
2022/06/16 02:11:30;;;;;;;6.80;2.20;;;26.50;54.30;;;;;;5033367;28;20441;-74
2022/06/16 02:14:12;;;;;;;4.22;1.70;;;26.50;54.40;;;;;;5033478;28;20033;-75
2022/06/16 02:16:39;;;;;;;3.85;1.90;;;26.50;54.10;;;;;;5033565;28;20033;-74
2022/06/16 02:19:12;;;;;;;5.38;2.05;;;26.50;54.20;;;;;;5033608;28;20017;-75
2022/06/16 02:21:47;;;;;;;6.45;2.10;;;26.50;53.00;;;;;;5033627;28;20570;-75
2022/06/16 02:24:16;;;;;;;11.88;2.30;;;26.50;53.90;;;;;;5033310;28;20028;-75
2022/06/16 02:26:43;;;;;;;7.32;1.80;;;26.40;54.00;;;;;;5033374;28;20033;-74
2022/06/16 02:29:29;;;;;;;4.57;1.85;;;26.40;54.00;;;;;;5033263;28;20033;-75
2022/06/16 02:32:19;;;;;;;11.32;2.55;;;26.30;53.60;;;;;;5033304;28;20017;-75
2022/06/16 02:35:07;;;;;;;4.75;1.83;;;26.20;53.00;;;;;;5031927;28;20021;-74
2022/06/16 02:37:44;;;;;;;7.22;2.00;;;26.10;53.20;;;;;;5033686;28;20116;-75
2022/06/16 02:40:35;;;;;;;7.15;2.05;;;26.10;53.40;;;;;;5033075;28;20050;-74
2022/06/16 02:43:23;;;;;;;5.43;1.92;;;26.10;53.60;;;;;;5033606;28;20028;-73
2022/06/16 02:45:54;;;;;;;5.28;2.20;;;26.10;53.90;;;;;;5032762;28;20495;-73
2022/06/16 02:48:51;;;;;;;5.15;1.88;;;26.00;53.90;;;;;;5032868;28;20112;-74
2022/06/16 02:51:35;;;;;;;6.95;2.30;;;26.00;54.30;;;;;;5032966;28;20536;-73
2022/06/16 02:54:26;;;;;;;5.53;2.20;;;26.00;54.80;;;;;;5032826;28;20092;-74
2022/06/16 02:57:18;;;;;;;6.38;2.20;;;26.10;54.60;;;;;;5032877;28;20053;-73
2022/06/16 03:00:07;;;;;;;6.47;2.58;;;26.00;54.80;;;;;;5032798;28;20467;-73
2022/06/16 03:02:37;;;;;;;9.50;2.60;;;26.00;55.20;;;;;;5032922;28;20033;-72
2022/06/16 03:05:05;;;;;;;5.78;2.03;;;25.90;55.90;;;;;;5032924;28;20056;-74
2022/06/16 03:07:33;;;;;;;7.10;2.35;;;25.90;56.10;;;;;;5032831;28;20037;-74
2022/06/16 03:10:00;;;;;;;10.55;2.80;;;25.90;56.60;;;;;;5032536;28;20429;-73
2022/06/16 03:12:26;;;;;;;4.68;2.30;;;25.90;56.70;;;;;;5032711;28;20062;-74
2022/06/16 03:14:52;;;;;;;8.05;2.97;;;25.90;56.90;;;;;;5032835;28;20026;-73
2022/06/16 03:17:18;;;;;;;7.57;2.60;;;25.80;57.10;;;;;;5032674;28;20025;-73
2022/06/16 03:19:44;;;;;;;6.93;2.50;;;25.90;57.30;;;;;;5032844;28;20059;-73
2022/06/16 03:22:10;;;;;;;6.95;2.83;;;25.80;57.40;;;;;;5033197;28;20029;-73
2022/06/16 03:24:37;;;;;;;8.20;2.60;;;25.70;57.50;;;;;;5032989;28;20025;-74
2022/06/16 03:27:05;;;;;;;5.90;2.35;;;25.80;57.70;;;;;;5032634;28;20029;-72
2022/06/16 03:29:31;;;;;;;14.52;2.83;;;25.80;57.60;;;;;;5032562;28;20448;-73
2022/06/16 03:31:57;;;;;;;8.93;2.97;;;25.80;57.70;;;;;;5035929;28;20125;-73
2022/06/16 03:34:24;;;;;;;9.77;2.80;;;25.70;57.80;;;;;;5036159;28;20079;-74
2022/06/16 03:36:50;;;;;;;7.70;2.38;;;25.70;57.90;;;;;;5036014;28;20452;-73
2022/06/16 03:39:16;;;;;;;10.50;2.83;;;25.80;57.80;;;;;;5035938;28;20026;-74
2022/06/16 03:41:42;;;;;;;6.82;2.75;;;25.80;57.80;;;;;;5036068;28;20179;-74
2022/06/16 03:44:07;;;;;;;7.72;2.75;;;25.90;57.90;;;;;;5034768;28;20029;-73
2022/06/16 03:46:33;;;;;;;9.82;3.00;;;25.90;57.90;;;;;;5036264;28;20053;-73
2022/06/16 03:48:59;;;;;;;11.30;3.05;;;25.90;58.20;;;;;;5034600;28;20028;-74
2022/06/16 03:51:25;;;;;;;11.90;2.80;;;25.90;58.00;;;;;;5035803;28;20382;-74
2022/06/16 03:53:51;;;;;;;8.57;2.78;;;25.90;57.90;;;;;;5035890;28;20029;-74
2022/06/16 03:56:18;;;;;;;13.68;3.53;;;25.90;57.90;;;;;;5035920;28;20029;-75
2022/06/16 03:58:44;;;;;;;9.82;2.67;;;25.80;58.10;;;;;;5035695;28;20033;-73
2022/06/16 04:01:11;;;;;;;11.52;2.65;;;25.80;58.30;;;;;;5035563;28;20172;-75
2022/06/16 04:06:22;;;;;;;6.57;2.80;;;25.80;58.40;;;;;;5035554;28;20545;-73
2022/06/16 04:08:49;;;;;;;8.75;2.58;;;25.80;58.30;;;;;;5035636;28;20041;-72
2022/06/16 04:11:26;;;;;;;7.97;2.60;;;25.80;58.60;;;;;;5033977;28;20052;-74
2022/06/16 04:13:54;;;;;;;6.30;3.05;;;25.70;58.40;;;;;;5035850;28;20439;-74
2022/06/16 04:16:20;;;;;;;14.07;3.70;;;25.70;58.70;;;;;;5035515;28;20034;-76
2022/06/16 04:18:46;;;;;;;6.72;3.38;;;25.70;58.70;;;;;;5035568;28;20079;-75
2022/06/16 04:21:12;;;;;;;7.03;3.15;;;25.70;58.70;;;;;;5035388;28;20025;-74
2022/06/16 04:23:38;;;;;;;10.63;3.35;;;25.60;58.80;;;;;;5035164;28;20024;-74
2022/06/16 04:26:05;;;;;;;6.05;2.83;;;25.70;58.70;;;;;;5035347;28;20056;-72
2022/06/16 04:28:31;;;;;;;8.95;2.80;;;25.70;58.60;;;;;;5035370;28;20030;-72
2022/06/16 04:30:57;;;;;;;9.82;3.00;;;25.70;58.60;;;;;;5035101;28;20101;-75
2022/06/16 04:33:23;;;;;;;14.85;2.95;;;25.80;58.40;;;;;;5034851;28;20429;-71
2022/06/16 04:35:49;;;;;;;9.10;3.13;;;25.80;58.10;;;;;;5034972;28;20022;-74
2022/06/16 04:38:14;;;;;;;8.75;3.10;;;25.80;58.00;;;;;;5034912;28;20067;-72
2022/06/16 04:40:40;;;;;;;8.23;2.85;;;25.80;57.90;;;;;;5034293;28;20068;-75
2022/06/16 04:43:06;;;;;;;7.68;2.45;;;25.80;57.70;;;;;;5033636;28;20087;-74
2022/06/16 04:45:33;;;;;;;6.35;2.47;;;25.80;57.70;;;;;;5035089;28;20021;-73
2022/06/16 04:47:59;;;;;;;7.43;2.40;;;25.80;57.40;;;;;;5034796;28;20497;-74
2022/06/16 04:50:24;;;;;;;7.90;2.80;;;25.90;57.40;;;;;;5034726;28;20033;-75
2022/06/16 04:52:50;;;;;;;6.32;2.75;;;25.90;57.20;;;;;;5034816;28;20057;-76
2022/06/16 04:55:16;;;;;;;9.20;3.33;;;25.90;57.20;;;;;;5034700;28;20025;-76
2022/06/16 04:57:42;;;;;;;9.23;2.80;;;25.90;57.30;;;;;;5034790;28;20021;-74
2022/06/16 05:00:13;;;;;;;8.25;3.35;;;25.80;57.10;;;;;;5034551;28;20025;-74
2022/06/16 05:02:39;;;;;;;12.23;4.05;;;25.80;57.30;;;;;;5034626;28;20061;-74
2022/06/16 05:05:05;;;;;;;8.68;3.58;;;25.80;56.90;;;;;;5034538;28;20060;-74
2022/06/16 05:07:31;;;;;;;8.00;2.75;;;25.90;57.10;;;;;;5034242;28;20057;-73
2022/06/16 05:09:57;;;;;;;11.95;3.33;;;25.90;56.60;;;;;;5034177;28;20021;-74
2022/06/16 05:12:23;;;;;;;8.70;3.03;;;25.90;56.70;;;;;;5034262;28;20033;-74
2022/06/16 05:14:48;;;;;;;10.23;3.10;;;25.90;56.70;;;;;;5034207;28;20017;-72
2022/06/16 05:17:15;;;;;;;5.32;2.47;;;26.00;56.50;;;;;;5034236;28;20029;-72
2022/06/16 05:19:41;;;;;;;10.45;3.03;;;26.10;56.40;;;;;;5034158;28;20104;-74
2022/06/16 05:22:07;;;;;;;5.80;2.72;;;26.40;55.90;;;;;;5034413;28;20128;-74
2022/06/16 05:24:33;;;;;;;4.78;2.40;;;26.80;55.00;;;;;;5034179;28;20021;-75
2022/06/16 05:27:01;;;;;;;7.90;3.33;;;27.20;54.10;;;;;;5033247;28;20034;-76
2022/06/16 05:29:27;;;;;;;8.35;2.88;;;27.70;53.30;;;;;;5033314;28;20057;-74
2022/06/16 05:31:52;;;;;;;9.02;2.80;;;28.00;52.50;;;;;;5034004;28;20443;-76
2022/06/16 05:34:18;;;;;;;10.75;2.75;;;28.30;52.00;;;;;;5034240;28;20041;-75
2022/06/16 05:36:47;;;;;;;7.07;2.70;;;28.60;50.90;;;;;;5033339;28;20029;-73
2022/06/16 05:39:13;;;;;;;8.32;2.88;;;28.70;49.70;;;;;;5033860;28;20041;-74
2022/06/16 05:41:39;;;;;;;8.30;2.70;;;29.00;50.10;;;;;;5033550;28;20041;-73
2022/06/16 05:44:06;;;;;;;6.72;3.08;;;29.10;49.60;;;;;;5033639;28;20036;-71
2022/06/16 05:46:32;;;;;;;7.05;2.90;;;29.30;49.20;;;;;;5033666;28;20021;-73
2022/06/16 05:48:57;;;;;;;10.40;3.25;;;29.50;48.80;;;;;;5033792;28;20486;-71
2022/06/16 05:51:23;;;;;;;11.68;2.90;;;29.80;48.30;;;;;;5033754;28;20032;-75
2022/06/16 05:53:50;;;;;;;12.13;3.33;;;29.90;47.70;;;;;;5033395;28;20026;-72
2022/06/16 05:56:16;;;;;;;10.35;3.03;;;30.10;47.80;;;;;;5033404;28;20028;-74
2022/06/16 05:58:42;;;;;;;13.43;3.35;;;30.10;47.40;;;;;;5033548;28;20051;-73
2022/06/16 06:01:10;;;;;;;16.90;4.43;;;30.40;47.10;;;;;;5033270;28;20542;-72
2022/06/16 06:03:38;;;;;;;9.90;3.60;;;30.60;47.10;;;;;;5033307;28;20030;-74
2022/06/16 06:06:04;;;;;;;12.95;4.13;;;30.60;47.00;;;;;;5033403;28;20029;-73
2022/06/16 06:16:48;;;;;;;13.40;3.85;;;31.10;47.10;;;;;;5033265;28;20496;-71
2022/06/16 06:19:24;;;;;;;14.68;4.00;;;31.10;46.00;;;;;;5032346;28;20112;-71
2022/06/16 06:22:11;;;;;;;13.07;3.72;;;31.20;47.00;;;;;;5033131;28;20083;-71
2022/06/16 06:24:48;;;;;;;14.75;3.85;;;31.20;45.00;;;;;;5031364;28;20037;-72
2022/06/16 06:27:31;;;;;;;12.80;4.00;;;31.40;44.90;;;;;;5033058;28;20446;-71
2022/06/16 06:29:57;;;;;;;10.30;3.35;;;31.60;44.60;;;;;;5032994;28;20463;-71
2022/06/16 06:32:24;;;;;;;12.30;3.90;;;31.70;44.70;;;;;;5032850;28;20031;-72
2022/06/16 06:34:51;;;;;;;12.23;3.53;;;31.80;44.60;;;;;;5032765;28;20021;-71
2022/06/16 06:37:19;;;;;;;9.18;3.75;;;31.80;45.30;;;;;;5032725;28;20036;-73
2022/06/16 06:39:45;;;;;;;11.25;3.28;;;31.80;44.30;;;;;;5032649;28;20026;-71
2022/06/16 06:42:10;;;;;;;17.85;5.78;;;31.90;45.50;;;;;;5032877;28;20021;-72
2022/06/16 06:44:36;;;;;;;32.00;9.60;;;32.00;44.20;;;;;;5033011;28;20072;-72
2022/06/16 06:47:03;;;;;;;25.10;7.55;;;32.20;43.40;;;;;;5033025;28;20104;-73
2022/06/16 06:49:29;;;;;;;15.63;3.75;;;32.30;42.90;;;;;;5032716;28;20025;-71
2022/06/16 06:51:55;;;;;;;12.60;3.83;;;32.50;42.30;;;;;;5032778;28;20493;-73
2022/06/16 06:54:21;;;;;;;25.17;5.35;;;32.40;42.40;;;;;;5032680;28;20021;-71
2022/06/16 06:56:48;;;;;;;15.38;3.78;;;32.50;42.10;;;;;;5032981;28;20064;-72
2022/06/16 06:59:18;;;;;;;14.20;3.92;;;32.50;41.70;;;;;;5032615;28;20030;-71
2022/06/16 07:01:48;;;;;;;11.80;3.42;;;32.50;41.60;;;;;;5032736;28;20032;-72
2022/06/16 07:04:14;;;;;;;10.60;4.00;;;32.50;41.80;;;;;;5033691;28;20371;-72
2022/06/16 07:06:41;;;;;;;13.27;3.55;;;32.60;41.50;;;;;;5036148;28;20186;-71
2022/06/16 07:09:09;;;;;;;11.57;3.00;;;32.80;41.40;;;;;;5036510;28;20021;-73
2022/06/16 07:11:35;;;;;;;13.38;3.65;;;32.90;41.20;;;;;;5034845;28;20029;-75
2022/06/16 07:14:00;;;;;;;21.40;4.90;;;32.80;41.00;;;;;;5036479;28;20029;-74
2022/06/16 07:16:26;;;;;;;17.27;5.28;;;32.70;40.80;;;;;;5034946;28;20025;-75
2022/06/16 07:18:52;;;;;;;27.60;5.45;;;32.80;40.80;;;;;;5036663;28;20061;-73
2022/06/16 07:21:18;;;;;;;18.88;5.60;;;32.90;40.90;;;;;;5036347;28;20101;-73
2022/06/16 07:23:44;;;;;;;17.20;5.47;;;32.90;40.60;;;;;;5036140;28;20034;-74
2022/06/16 07:26:10;;;;;;;12.40;3.67;;;33.00;40.50;;;;;;5036128;28;20021;-74
2022/06/16 07:28:37;;;;;;;18.00;5.05;;;33.00;40.30;;;;;;5036317;28;20060;-72
2022/06/16 07:31:03;;;;;;;16.55;5.25;;;33.00;40.10;;;;;;5036467;28;20037;-72
2022/06/16 07:33:29;;;;;;;19.23;7.60;;;33.10;40.20;;;;;;5036104;28;20026;-73
2022/06/16 07:35:55;;;;;;;21.92;11.13;;;33.20;39.90;;;;;;5036423;28;20088;-74
2022/06/16 07:38:24;;;;;;;17.15;7.03;;;33.30;39.70;;;;;;5035990;28;20430;-74
2022/06/16 07:40:50;;;;;;;23.00;7.72;;;33.40;39.80;;;;;;5037932;28;20053;-73
2022/06/16 07:43:15;;;;;;;13.00;3.53;;;33.30;39.70;;;;;;5041459;28;20022;-77
2022/06/16 07:45:41;;;;;;;11.90;4.30;;;33.30;39.40;;;;;;5049022;28;20067;-73
2022/06/16 07:48:07;;;;;;;14.40;5.82;;;33.30;39.30;;;;;;5043488;28;20041;-74
2022/06/16 07:50:37;;;;;;;18.15;5.60;;;33.30;39.20;;;;;;5036309;28;20076;-73
2022/06/16 07:53:07;;;;;;;13.20;3.90;;;33.40;38.90;;;;;;5036408;28;20029;-73
2022/06/16 07:55:33;;;;;;;9.18;3.60;;;33.40;39.20;;;;;;5036348;28;20052;-72
2022/06/16 07:57:59;;;;;;;12.50;3.47;;;33.30;38.90;;;;;;5035984;28;20116;-75
2022/06/16 08:00:28;;;;;;;13.88;3.70;;;33.20;39.10;;;;;;5035618;28;20053;-74
2022/06/16 08:02:55;;;;;;;8.40;3.35;;;33.10;39.30;;;;;;5034417;28;20381;-75
2022/06/16 08:05:21;;;;;;;8.88;2.65;;;33.00;39.00;;;;;;5034367;28;20025;-74
2022/06/16 08:07:47;;;;;;;10.27;2.95;;;32.90;38.60;;;;;;5035622;28;20103;-76
2022/06/16 08:10:19;;;;;;;12.55;4.78;;;32.90;38.50;;;;;;5034331;28;20025;-75
2022/06/16 08:12:44;;;;;;;14.57;3.30;;;32.90;38.70;;;;;;5035497;28;20128;-75
2022/06/16 08:15:12;;;;;;;10.85;3.92;;;32.80;38.50;;;;;;5035037;28;20029;-75
2022/06/16 08:17:40;;;;;;;17.45;4.60;;;32.70;38.60;;;;;;5034894;28;20121;-75
2022/06/16 08:20:08;;;;;;;11.45;2.80;;;32.70;39.10;;;;;;5035278;28;20036;-76
2022/06/16 08:22:34;;;;;;;14.80;5.03;;;32.70;39.10;;;;;;5035394;28;20025;-75
2022/06/16 08:25:00;;;;;;;13.18;4.15;;;32.50;38.70;;;;;;5035313;28;20026;-77
2022/06/16 08:27:33;;;;;;;13.55;3.30;;;32.50;39.70;;;;;;5035190;28;20384;-74
2022/06/16 08:29:59;;;;;;;9.48;2.72;;;32.50;39.00;;;;;;5035001;28;20489;-74
2022/06/16 08:32:25;;;;;;;9.50;2.70;;;32.50;38.70;;;;;;5035001;28;20032;-77
2022/06/16 08:34:51;;;;;;;18.35;9.65;;;32.40;38.60;;;;;;5035123;28;20024;-74
2022/06/16 08:37:20;;;;;;;17.50;9.38;;;32.30;38.70;;;;;;5066839;28;20104;-74
2022/06/16 08:39:45;;;;;;;12.13;3.13;;;32.30;38.60;;;;;;5034409;28;20417;-77
2022/06/16 08:42:24;;;;;;;11.82;2.95;;;32.30;38.60;;;;;;5034891;28;20029;-75
2022/06/16 08:45:18;;;;;;;24.35;5.15;;;32.20;39.30;;;;;;5034998;28;20434;-75
2022/06/16 08:48:03;;;;;;;13.95;3.25;;;32.20;39.60;;;;;;5034700;28;20041;-76
2022/06/16 08:50:33;;;;;;;11.10;3.25;;;32.20;39.90;;;;;;5034479;28;20026;-76
2022/06/16 08:53:16;;;;;;;14.75;3.42;;;32.20;39.40;;;;;;5034596;28;20034;-73
2022/06/16 08:55:47;;;;;;;;;;;32.20;38.90;;;;;;5034929;28;20031;-73
2022/06/16 08:58:55;;;;;;;9.18;3.88;;;32.20;38.90;;;;;;5034794;28;20266;-73
2022/06/16 09:01:29;;;;;;;12.65;3.47;;;32.10;39.90;;;;;;5034485;28;20057;-73
2022/06/16 09:04:08;;;;;;;11.15;2.92;;;32.10;39.70;;;;;;5033216;28;20092;-74
2022/06/16 09:06:49;;;;;;;10.75;3.05;;;32.10;40.00;;;;;;5034386;28;20037;-74
2022/06/16 09:12:34;;;;;;;9.70;2.07;;;32.20;37.90;;;;;;5034602;28;20048;-72
2022/06/16 09:15:12;;;;;;;9.07;2.22;;;32.10;36.60;;;;;;5034226;28;20013;-75
2022/06/16 09:17:58;;;;;;;7.60;2.25;;;32.10;36.30;;;;;;5034383;28;20033;-76
2022/06/16 09:20:55;;;;;;;12.73;2.60;;;32.10;36.00;;;;;;5034055;28;20060;-75
2022/06/16 09:23:43;;;;;;;5.97;2.30;;;32.00;35.40;;;;;;5033311;28;20037;-75
2022/06/16 09:26:24;;;;;;;7.05;2.63;;;32.00;34.80;;;;;;5033944;28;20040;-75
2022/06/16 09:29:00;;;;;;;8.27;2.35;;;32.00;34.40;;;;;;5033394;28;20123;-76
2022/06/16 09:31:42;;;;;;;8.68;2.30;;;32.00;34.30;;;;;;5034267;28;20051;-81
2022/06/16 09:34:16;;;;;;;43.00;5.00;;;32.10;34.50;;;;;;5017835;28;20506;-82
2022/06/16 09:36:56;;;;;;;21.85;3.42;;;32.20;33.90;;;;;;5036153;28;20466;-84
2022/06/16 09:39:27;;;;;;;20.63;3.88;;;32.20;34.40;;;;;;5035809;28;20475;-83
2022/06/16 09:42:37;;;;;;;19.77;4.40;;;32.30;33.60;;;;;;5037998;28;20136;-86
2022/06/16 09:45:09;;;;;;;10.45;3.30;;;32.40;35.20;;;;;;5037180;28;20068;-83
2022/06/16 09:47:45;;;;;;;9.98;2.58;;;32.40;34.80;;;;;;5034810;28;20079;-82
2022/06/16 09:50:20;;;;;;;10.27;3.60;;;32.40;34.30;;;;;;5037693;28;20025;-79
2022/06/16 09:53:12;;;;;;;11.85;4.13;;;32.40;35.60;;;;;;5038745;28;20105;-78
2022/06/16 09:55:50;;;;;;;8.80;2.85;;;32.40;36.20;;;;;;5040485;28;20034;-80
2022/06/16 09:58:30;;;;;;;5.13;2.30;;;32.50;35.30;;;;;;5034584;28;20013;-77
2022/06/16 10:01:00;;;;;;;6.90;2.53;;;32.50;35.50;;;;;;5036137;28;20034;-76
2022/06/16 10:03:45;;;;;;;9.75;2.80;;;32.60;35.20;;;;;;5035676;28;20026;-81
2022/06/16 10:06:14;;;;;;;11.63;2.65;;;32.60;35.30;;;;;;5034044;28;20025;-78
2022/06/16 10:08:50;;;;;;;6.15;2.17;;;32.60;36.40;;;;;;5036036;28;20029;-78
2022/06/16 10:11:35;;;;;;;7.20;2.67;;;32.60;35.10;;;;;;5037712;28;20018;-78
2022/06/16 10:14:26;;;;;;;5.72;2.55;;;32.60;35.30;;;;;;5036531;28;20029;-78
2022/06/16 10:16:58;;;;;;;9.05;2.97;;;32.60;35.60;;;;;;5034520;28;20057;-80
2022/06/16 10:19:27;;;;;;;12.18;2.85;;;32.50;35.30;;;;;;5034179;28;20032;-80
2022/06/16 10:21:53;;;;;;;7.78;2.60;;;32.60;34.60;;;;;;5034048;28;20030;-74
2022/06/16 10:24:23;;;;;;;6.53;2.95;;;32.60;34.80;;;;;;5034149;28;20048;-73
2022/06/16 10:26:49;;;;;;;13.93;4.13;;;32.60;34.90;;;;;;5033368;28;20041;-74
2022/06/16 10:29:28;;;;;;;19.60;7.65;;;32.60;35.70;;;;;;5034031;28;20087;-73
2022/06/16 10:31:58;;;;;;;19.05;9.32;;;32.70;37.60;;;;;;5038073;28;20556;-84
2022/06/16 10:34:34;;;;;;;18.55;9.20;;;32.80;39.70;;;;;;5035819;28;20021;-79
2022/06/16 10:37:06;;;;;;;22.98;8.88;;;32.80;38.60;;;;;;5071718;28;20106;-76
2022/06/16 10:39:57;;;;;;;21.35;7.97;;;32.90;39.10;;;;;;5039028;28;20088;-74
2022/06/16 10:42:31;;;;;;;28.77;8.85;;;33.00;37.50;;;;;;5037087;28;20042;-71
2022/06/16 10:45:39;;;;;;;15.73;8.88;;;32.90;38.50;;;;;;5036722;28;20025;-71
2022/06/16 10:48:28;;;;;;;24.23;9.45;;;32.90;39.70;;;;;;5035708;28;20427;-73
2022/06/16 10:51:25;;;;;;;19.20;9.43;;;32.80;40.20;;;;;;5036545;28;20045;-73
2022/06/16 10:54:23;;;;;;;21.00;9.05;;;32.70;39.80;;;;;;5036674;28;20033;-74
2022/06/16 10:56:49;;;;;;;76.00;15.68;;;32.80;40.40;;;;;;5035679;28;20413;-73
2022/06/16 10:59:23;;;;;;;33.22;10.43;;;32.80;41.70;;;;;;5036677;28;20551;-75
2022/06/16 11:02:14;;;;;;;16.73;9.18;;;32.80;41.00;;;;;;5036897;28;20072;-74
2022/06/16 11:04:43;;;;;;;22.08;9.15;;;32.80;41.20;;;;;;5037123;28;20029;-81
2022/06/16 11:07:12;;;;;;;17.80;8.45;;;32.90;40.40;;;;;;5038047;28;20029;-71
2022/06/16 11:09:38;;;;;;;17.90;9.07;;;33.00;40.10;;;;;;5037510;28;20028;-77
2022/06/16 11:12:17;;;;;;;25.40;10.35;;;33.00;40.00;;;;;;5037053;28;20048;-79
2022/06/16 11:14:52;;;;;;;20.75;9.85;;;33.00;39.90;;;;;;5035202;28;20025;-79
2022/06/16 11:17:20;;;;;;;64.03;15.10;;;33.10;40.60;;;;;;5036925;28;20497;-72
2022/06/16 11:19:51;;;;;;;51.55;12.35;;;33.20;40.60;;;;;;5035187;28;20360;-78
2022/06/16 11:22:40;;;;;;;24.90;10.07;;;33.20;40.30;;;;;;5036482;28;20033;-76
2022/06/16 11:25:32;;;;;;;26.27;10.20;;;33.20;39.80;;;;;;5036869;28;20470;-69
2022/06/16 11:28:02;;;;;;;20.67;9.27;;;33.30;40.10;;;;;;5036132;28;20045;-77
2022/06/16 11:30:36;;;;;;;19.35;9.07;;;33.40;39.90;;;;;;5036421;28;20131;-78
2022/06/16 11:33:04;;;;;;;31.35;9.55;;;33.40;39.90;;;;;;5036237;28;20037;-78
2022/06/16 11:35:42;;;;;;;29.52;8.20;;;33.40;40.80;;;;;;5036384;28;20104;-83
2022/06/16 11:38:31;;;;;;;21.58;8.55;;;33.40;40.20;;;;;;5036677;28;20033;-77
2022/06/16 11:41:08;;;;;;;19.45;7.45;;;33.50;40.10;;;;;;5039248;28;20077;-82
2022/06/16 11:44:00;;;;;;;22.95;7.80;;;33.50;40.10;;;;;;5039800;28;20033;-80
2022/06/16 11:46:33;;;;;;;13.90;6.90;;;33.50;40.60;;;;;;5037247;28;20113;-78
2022/06/16 11:49:05;;;;;;;15.55;7.07;;;33.40;40.00;;;;;;5038084;28;20033;-79
2022/06/16 11:51:40;;;;;;;16.27;6.82;;;33.40;40.40;;;;;;5037120;28;20097;-81
2022/06/16 11:54:26;;;;;;;14.52;6.22;;;33.40;40.00;;;;;;5037575;28;20438;-76
2022/06/16 11:57:22;;;;;;;15.20;7.60;;;33.40;40.70;;;;;;5042419;28;20025;-77
2022/06/16 12:00:03;;;;;;;14.52;5.57;;;33.40;40.80;;;;;;5037658;28;20021;-76
2022/06/16 12:02:41;;;;;;;16.15;5.90;;;33.40;40.80;;;;;;5036642;28;20018;-69
2022/06/16 12:05:28;;;;;;;10.50;5.03;;;33.40;41.20;;;;;;5037034;28;20104;-75
2022/06/16 12:08:15;;;;;;;10.98;4.47;;;33.50;41.30;;;;;;5037824;28;20080;-76
2022/06/16 12:11:03;;;;;;;13.65;5.35;;;33.50;40.60;;;;;;5040077;28;20113;-78
2022/06/16 12:14:11;;;;;;;9.50;4.43;;;33.50;39.70;;;;;;5037411;28;20033;-86
2022/06/16 12:17:13;;;;;;;13.55;4.28;;;33.50;40.10;;;;;;5036587;28;20033;-83
2022/06/16 12:20:14;;;;;;;8.73;3.88;;;33.50;39.60;;;;;;5036675;28;20060;-83
2022/06/16 12:22:57;;;;;;;7.38;3.65;;;33.50;38.50;;;;;;5036402;28;20045;-84
2022/06/16 12:25:26;;;;;;;8.80;3.22;;;33.50;39.20;;;;;;5036325;28;20045;-80
2022/06/16 12:28:07;;;;;;;11.52;3.33;;;33.50;38.10;;;;;;5036169;28;20041;-84
2022/06/16 12:30:43;;;;;;;10.80;3.10;;;33.50;39.00;;;;;;5036587;28;20021;-84
2022/06/16 12:33:31;;;;;;;10.50;3.00;;;33.50;39.10;;;;;;5036106;28;20030;-75
2022/06/16 12:36:08;;;;;;;12.98;2.25;;;33.60;39.00;;;;;;5036115;28;20056;-77
2022/06/16 12:38:37;;;;;;;9.23;2.85;;;33.70;37.80;;;;;;5034462;28;20022;-71
2022/06/16 12:41:37;;;;;;;6.05;2.25;;;33.60;37.90;;;;;;5035731;28;20061;-72
2022/06/16 12:44:20;;;;;;;7.53;2.40;;;33.70;38.50;;;;;;5034916;28;20041;-73
2022/06/16 12:46:58;;;;;;;9.68;2.03;;;33.80;37.10;;;;;;5035140;28;20068;-70
2022/06/16 12:49:36;;;;;;;8.35;2.42;;;33.70;36.90;;;;;;5035011;28;20033;-68
2022/06/16 12:52:24;;;;;;;7.78;2.08;;;33.80;37.90;;;;;;5034886;28;20032;-71
2022/06/16 12:55:00;;;;;;;6.43;2.00;;;33.80;36.90;;;;;;5030370;28;20041;-74
2022/06/16 12:57:36;;;;;;;6.53;1.85;;;33.90;36.60;;;;;;5034739;28;20021;-71
2022/06/16 13:00:14;;;;;;;6.07;1.88;;;33.80;36.70;;;;;;5034576;28;20029;-72
2022/06/16 13:02:48;;;;;;;7.55;2.17;;;33.80;37.10;;;;;;5035380;28;20026;-70
2022/06/16 13:05:26;;;;;;;9.95;2.08;;;33.90;37.90;;;;;;5035484;28;20057;-72
2022/06/16 13:07:54;;;;;;;8.13;2.15;;;33.80;37.90;;;;;;5034435;28;20033;-73
2022/06/16 13:10:24;;;;;;;7.03;1.95;;;33.80;38.70;;;;;;5034343;28;20105;-72
2022/06/16 13:13:01;;;;;;;4.90;2.10;;;33.70;39.90;;;;;;5065784;28;20045;-70
2022/06/16 13:15:32;;;;;;;8.90;2.00;;;33.70;39.20;;;;;;5034459;28;20471;-72
2022/06/16 13:18:15;;;;;;;8.32;2.40;;;33.80;39.40;;;;;;5034321;28;20029;-73
2022/06/16 13:20:46;;;;;;;10.88;3.00;;;33.80;39.10;;;;;;5033946;28;20394;-71
2022/06/16 13:23:29;;;;;;;13.52;3.17;;;33.70;39.60;;;;;;5034365;28;20178;-71
2022/06/16 13:26:31;;;;;;;13.65;3.50;;;33.70;40.60;;;;;;5034620;28;20067;-75
2022/06/16 13:29:17;;;;;;;10.13;4.93;;;33.70;40.10;;;;;;5034551;28;20145;-70
2022/06/16 13:31:54;;;;;;;19.40;6.63;;;33.50;40.00;;;;;;5033392;28;20021;-70
2022/06/16 13:34:41;;;;;;;13.95;6.22;;;33.50;39.80;;;;;;5034632;28;20033;-71